Unbenanntes Dokument
Flugplatz Bielefeld Platzwetter

 

Aktuelles Platzwetter am Flugplatz Bielefeld EDLI

20.04.18 ,12:40 Uhr

METAR EDLI 201240Z 27005KT 1400 27/09 Q1023

 

Windwerte

 

Wolkenuntergrenzen

Wind aktuell:190 ° mit 2 kt
Wind 10 min Extrem:
110 ° bis 340 ° mit 1 kt bis 8 kt
Seitenwindkomponente: 1.6 kt
Wolkengrenze 1:
Wolkengrenze 2:
Wolkengrenze 3:

Webcam

Temperatur

       

Sichtweite:

1.900 Meter

28.2 °C
Taupunkt: 9.3 °C
Luftfeuchtigkeit: 30 %

Luftdruck:

QNH: 1023 hPa (30.21 in Hg)
QFE: 1006 hPa (29.71 in Hg)

Diese Daten werden automatisch ermittelt bzw. übertragen und sind nicht geprüft. Für die Richtigkeit wird daher keine Gewähr übernommen. Sie ersetzen im übrigen nicht die Flugwetterberatung. Alle Zeitangaben beziehen sich auf UTC. Die Seite wird einmal die Minute aktualisiert! Sollten Sie ein ältere Seite haben, so drücken Sie bitte auf den Reload Button Ihres Browsers!